sensor_id;sensor_type;location;lat;lon;timestamp;P1;durP1;ratioP1;P2;durP2;ratioP2
11064;SDS011;5585;52.530;7.320;2022-07-23T00:01:43;1.70;;;1.60;;
11064;SDS011;5585;52.530;7.320;2022-07-23T00:04:10;3.35;;;1.88;;
11064;SDS011;5585;52.530;7.320;2022-07-23T00:06:37;2.05;;;1.88;;
11064;SDS011;5585;52.530;7.320;2022-07-23T00:09:04;2.60;;;2.15;;
11064;SDS011;5585;52.530;7.320;2022-07-23T00:11:30;1.98;;;1.80;;
11064;SDS011;5585;52.530;7.320;2022-07-23T00:13:57;2.20;;;2.05;;
11064;SDS011;5585;52.530;7.320;2022-07-23T00:16:23;2.67;;;2.20;;
11064;SDS011;5585;52.530;7.320;2022-07-23T00:18:50;2.13;;;2.00;;
11064;SDS011;5585;52.530;7.320;2022-07-23T00:21:16;2.90;;;2.28;;
11064;SDS011;5585;52.530;7.320;2022-07-23T00:23:44;2.08;;;1.80;;
11064;SDS011;5585;52.530;7.320;2022-07-23T00:26:11;2.28;;;1.85;;
11064;SDS011;5585;52.530;7.320;2022-07-23T00:28:37;3.10;;;2.08;;
11064;SDS011;5585;52.530;7.320;2022-07-23T00:31:04;2.80;;;2.20;;
11064;SDS011;5585;52.530;7.320;2022-07-23T00:33:30;2.33;;;1.95;;
11064;SDS011;5585;52.530;7.320;2022-07-23T00:35:57;2.85;;;2.05;;
11064;SDS011;5585;52.530;7.320;2022-07-23T00:38:23;1.85;;;1.75;;
11064;SDS011;5585;52.530;7.320;2022-07-23T00:40:51;2.58;;;1.67;;
11064;SDS011;5585;52.530;7.320;2022-07-23T00:43:19;2.10;;;1.88;;
11064;SDS011;5585;52.530;7.320;2022-07-23T00:45:45;2.00;;;1.80;;
11064;SDS011;5585;52.530;7.320;2022-07-23T00:48:12;2.90;;;2.00;;
11064;SDS011;5585;52.530;7.320;2022-07-23T00:50:38;1.90;;;1.58;;
11064;SDS011;5585;52.530;7.320;2022-07-23T00:53:05;2.63;;;1.65;;
11064;SDS011;5585;52.530;7.320;2022-07-23T00:55:34;2.13;;;1.90;;
11064;SDS011;5585;52.530;7.320;2022-07-23T00:58:02;2.83;;;2.10;;
11064;SDS011;5585;52.530;7.320;2022-07-23T01:00:28;4.57;;;2.88;;
11064;SDS011;5585;52.530;7.320;2022-07-23T01:02:55;5.10;;;2.63;;
11064;SDS011;5585;52.530;7.320;2022-07-23T01:05:21;2.25;;;2.05;;
11064;SDS011;5585;52.530;7.320;2022-07-23T01:07:48;1.77;;;1.67;;
11064;SDS011;5585;52.530;7.320;2022-07-23T01:10:14;1.85;;;1.52;;
11064;SDS011;5585;52.530;7.320;2022-07-23T01:13:00;1.90;;;1.80;;
11064;SDS011;5585;52.530;7.320;2022-07-23T01:15:28;1.92;;;1.50;;
11064;SDS011;5585;52.530;7.320;2022-07-23T01:17:55;4.65;;;2.10;;
11064;SDS011;5585;52.530;7.320;2022-07-23T01:20:21;3.35;;;2.00;;
11064;SDS011;5585;52.530;7.320;2022-07-23T01:22:49;4.65;;;2.13;;
11064;SDS011;5585;52.530;7.320;2022-07-23T01:25:16;2.10;;;1.90;;
11064;SDS011;5585;52.530;7.320;2022-07-23T01:27:43;2.20;;;2.00;;
11064;SDS011;5585;52.530;7.320;2022-07-23T01:30:10;2.00;;;1.60;;
11064;SDS011;5585;52.530;7.320;2022-07-23T01:32:36;2.33;;;1.88;;
11064;SDS011;5585;52.530;7.320;2022-07-23T01:35:03;3.17;;;2.20;;
11064;SDS011;5585;52.530;7.320;2022-07-23T01:37:30;2.92;;;2.03;;
11064;SDS011;5585;52.530;7.320;2022-07-23T01:39:58;2.47;;;1.92;;
11064;SDS011;5585;52.530;7.320;2022-07-23T01:42:24;2.38;;;2.05;;
11064;SDS011;5585;52.530;7.320;2022-07-23T01:44:51;2.40;;;1.92;;
11064;SDS011;5585;52.530;7.320;2022-07-23T01:47:17;2.60;;;2.00;;
11064;SDS011;5585;52.530;7.320;2022-07-23T01:49:44;3.38;;;2.00;;
11064;SDS011;5585;52.530;7.320;2022-07-23T01:52:10;2.53;;;2.00;;
11064;SDS011;5585;52.530;7.320;2022-07-23T01:54:37;2.92;;;1.80;;
11064;SDS011;5585;52.530;7.320;2022-07-23T01:57:05;3.60;;;2.00;;
11064;SDS011;5585;52.530;7.320;2022-07-23T01:59:32;2.50;;;2.17;;
11064;SDS011;5585;52.530;7.320;2022-07-23T02:01:59;2.22;;;1.88;;
11064;SDS011;5585;52.530;7.320;2022-07-23T02:04:25;2.40;;;2.20;;
11064;SDS011;5585;52.530;7.320;2022-07-23T02:06:52;2.45;;;2.25;;
11064;SDS011;5585;52.530;7.320;2022-07-23T02:09:19;3.42;;;3.13;;
11064;SDS011;5585;52.530;7.320;2022-07-23T02:11:45;4.20;;;2.47;;
11064;SDS011;5585;52.530;7.320;2022-07-23T02:14:13;2.80;;;2.35;;
11064;SDS011;5585;52.530;7.320;2022-07-23T02:16:40;3.85;;;2.20;;
11064;SDS011;5585;52.530;7.320;2022-07-23T02:19:06;2.63;;;1.75;;
11064;SDS011;5585;52.530;7.320;2022-07-23T02:21:32;2.58;;;2.38;;
11064;SDS011;5585;52.530;7.320;2022-07-23T02:23:59;3.53;;;2.45;;
11064;SDS011;5585;52.530;7.320;2022-07-23T02:26:25;2.92;;;2.22;;
11064;SDS011;5585;52.530;7.320;2022-07-23T02:28:52;3.58;;;2.42;;
11064;SDS011;5585;52.530;7.320;2022-07-23T02:31:20;2.75;;;1.98;;
11064;SDS011;5585;52.530;7.320;2022-07-23T02:33:46;2.53;;;2.33;;
11064;SDS011;5585;52.530;7.320;2022-07-23T02:36:13;2.33;;;1.98;;
11064;SDS011;5585;52.530;7.320;2022-07-23T02:38:39;2.20;;;2.00;;
11064;SDS011;5585;52.530;7.320;2022-07-23T02:41:06;2.65;;;1.88;;
11064;SDS011;5585;52.530;7.320;2022-07-23T02:43:32;2.22;;;1.80;;
11064;SDS011;5585;52.530;7.320;2022-07-23T02:45:59;2.30;;;1.92;;
11064;SDS011;5585;52.530;7.320;2022-07-23T02:48:27;2.50;;;2.30;;
11064;SDS011;5585;52.530;7.320;2022-07-23T02:50:53;2.85;;;2.40;;
11064;SDS011;5585;52.530;7.320;2022-07-23T02:53:21;4.10;;;3.00;;
11064;SDS011;5585;52.530;7.320;2022-07-23T02:55:47;2.78;;;2.13;;
11064;SDS011;5585;52.530;7.320;2022-07-23T02:58:14;2.75;;;2.20;;
11064;SDS011;5585;52.530;7.320;2022-07-23T03:00:41;2.83;;;2.20;;
11064;SDS011;5585;52.530;7.320;2022-07-23T03:03:07;2.40;;;2.20;;
11064;SDS011;5585;52.530;7.320;2022-07-23T03:05:35;3.78;;;2.20;;
11064;SDS011;5585;52.530;7.320;2022-07-23T03:08:01;2.83;;;1.95;;
11064;SDS011;5585;52.530;7.320;2022-07-23T03:10:28;3.78;;;2.30;;
11064;SDS011;5585;52.530;7.320;2022-07-23T03:12:54;3.03;;;2.35;;
11064;SDS011;5585;52.530;7.320;2022-07-23T03:15:21;2.33;;;2.13;;
11064;SDS011;5585;52.530;7.320;2022-07-23T03:17:47;2.78;;;2.20;;
11064;SDS011;5585;52.530;7.320;2022-07-23T03:20:14;2.20;;;1.83;;
11064;SDS011;5585;52.530;7.320;2022-07-23T03:22:42;2.50;;;2.30;;
11064;SDS011;5585;52.530;7.320;2022-07-23T03:25:08;2.50;;;2.22;;
11064;SDS011;5585;52.530;7.320;2022-07-23T03:27:35;2.65;;;2.42;;
11064;SDS011;5585;52.530;7.320;2022-07-23T03:30:02;3.38;;;3.08;;
11064;SDS011;5585;52.530;7.320;2022-07-23T03:32:28;2.30;;;2.10;;
11064;SDS011;5585;52.530;7.320;2022-07-23T03:34:56;2.78;;;2.20;;
11064;SDS011;5585;52.530;7.320;2022-07-23T03:37:22;2.65;;;2.33;;
11064;SDS011;5585;52.530;7.320;2022-07-23T03:39:50;3.28;;;2.08;;
11064;SDS011;5585;52.530;7.320;2022-07-23T03:42:17;2.63;;;2.42;;
11064;SDS011;5585;52.530;7.320;2022-07-23T03:44:43;2.45;;;2.25;;
11064;SDS011;5585;52.530;7.320;2022-07-23T03:47:10;4.57;;;3.00;;
11064;SDS011;5585;52.530;7.320;2022-07-23T03:49:36;2.70;;;2.50;;
11064;SDS011;5585;52.530;7.320;2022-07-23T03:52:03;3.33;;;2.92;;
11064;SDS011;5585;52.530;7.320;2022-07-23T03:54:29;3.08;;;2.78;;
11064;SDS011;5585;52.530;7.320;2022-07-23T03:56:57;4.30;;;2.95;;
11064;SDS011;5585;52.530;7.320;2022-07-23T03:59:24;3.28;;;2.80;;
11064;SDS011;5585;52.530;7.320;2022-07-23T04:01:50;5.13;;;2.92;;
11064;SDS011;5585;52.530;7.320;2022-07-23T04:04:16;4.80;;;3.03;;
11064;SDS011;5585;52.530;7.320;2022-07-23T04:06:43;5.13;;;3.28;;
11064;SDS011;5585;52.530;7.320;2022-07-23T04:09:09;3.22;;;2.70;;
11064;SDS011;5585;52.530;7.320;2022-07-23T04:11:36;3.75;;;3.03;;
11064;SDS011;5585;52.530;7.320;2022-07-23T04:14:03;4.28;;;3.30;;
11064;SDS011;5585;52.530;7.320;2022-07-23T04:16:30;3.85;;;3.55;;
11064;SDS011;5585;52.530;7.320;2022-07-23T04:18:57;6.47;;;3.10;;
11064;SDS011;5585;52.530;7.320;2022-07-23T04:21:23;4.65;;;3.47;;
11064;SDS011;5585;52.530;7.320;2022-07-23T04:23:50;3.55;;;3.25;;
11064;SDS011;5585;52.530;7.320;2022-07-23T04:26:16;4.70;;;3.13;;
11064;SDS011;5585;52.530;7.320;2022-07-23T04:28:43;3.70;;;3.30;;
11064;SDS011;5585;52.530;7.320;2022-07-23T04:31:10;5.30;;;2.80;;
11064;SDS011;5585;52.530;7.320;2022-07-23T04:33:37;3.80;;;3.40;;
11064;SDS011;5585;52.530;7.320;2022-07-23T04:36:03;3.60;;;3.10;;
11064;SDS011;5585;52.530;7.320;2022-07-23T04:38:30;3.95;;;3.33;;
11064;SDS011;5585;52.530;7.320;2022-07-23T04:40:57;3.95;;;3.47;;
11064;SDS011;5585;52.530;7.320;2022-07-23T04:43:24;3.40;;;3.10;;
11064;SDS011;5585;52.530;7.320;2022-07-23T04:45:50;4.43;;;3.35;;
11064;SDS011;5585;52.530;7.320;2022-07-23T04:48:18;3.75;;;3.35;;
11064;SDS011;5585;52.530;7.320;2022-07-23T04:50:44;4.30;;;3.33;;
11064;SDS011;5585;52.530;7.320;2022-07-23T04:53:11;3.30;;;3.00;;
11064;SDS011;5585;52.530;7.320;2022-07-23T04:55:37;4.07;;;3.60;;
11064;SDS011;5585;52.530;7.320;2022-07-23T04:58:04;4.10;;;3.17;;
11064;SDS011;5585;52.530;7.320;2022-07-23T05:00:30;3.45;;;3.10;;
11064;SDS011;5585;52.530;7.320;2022-07-23T05:02:57;4.13;;;3.50;;
11064;SDS011;5585;52.530;7.320;2022-07-23T05:05:25;4.65;;;3.38;;
11064;SDS011;5585;52.530;7.320;2022-07-23T05:07:51;3.85;;;3.30;;
11064;SDS011;5585;52.530;7.320;2022-07-23T05:10:17;4.47;;;2.97;;
11064;SDS011;5585;52.530;7.320;2022-07-23T05:12:44;3.35;;;2.85;;
11064;SDS011;5585;52.530;7.320;2022-07-23T05:15:10;3.45;;;3.13;;
11064;SDS011;5585;52.530;7.320;2022-07-23T05:17:37;4.22;;;3.28;;
11064;SDS011;5585;52.530;7.320;2022-07-23T05:20:03;5.60;;;3.55;;
11064;SDS011;5585;52.530;7.320;2022-07-23T05:22:31;5.82;;;3.05;;
11064;SDS011;5585;52.530;7.320;2022-07-23T05:24:58;3.40;;;3.10;;
11064;SDS011;5585;52.530;7.320;2022-07-23T05:27:24;3.70;;;2.97;;
11064;SDS011;5585;52.530;7.320;2022-07-23T05:29:51;3.42;;;3.13;;
11064;SDS011;5585;52.530;7.320;2022-07-23T05:32:17;3.65;;;3.10;;
11064;SDS011;5585;52.530;7.320;2022-07-23T05:34:44;3.65;;;3.15;;
11064;SDS011;5585;52.530;7.320;2022-07-23T05:37:10;3.80;;;3.35;;
11064;SDS011;5585;52.530;7.320;2022-07-23T05:39:38;3.72;;;3.10;;
11064;SDS011;5585;52.530;7.320;2022-07-23T05:42:04;5.65;;;2.70;;
11064;SDS011;5585;52.530;7.320;2022-07-23T05:44:31;4.53;;;2.58;;
11064;SDS011;5585;52.530;7.320;2022-07-23T05:46:57;3.97;;;2.60;;
11064;SDS011;5585;52.530;7.320;2022-07-23T05:49:24;3.20;;;2.50;;
11064;SDS011;5585;52.530;7.320;2022-07-23T05:51:50;2.50;;;2.30;;
11064;SDS011;5585;52.530;7.320;2022-07-23T05:54:17;3.35;;;2.70;;
11064;SDS011;5585;52.530;7.320;2022-07-23T05:56:45;2.40;;;2.20;;
11064;SDS011;5585;52.530;7.320;2022-07-23T05:59:11;3.90;;;2.47;;
11064;SDS011;5585;52.530;7.320;2022-07-23T06:01:39;3.58;;;1.92;;
11064;SDS011;5585;52.530;7.320;2022-07-23T06:04:06;2.80;;;2.42;;
11064;SDS011;5585;52.530;7.320;2022-07-23T06:06:32;2.80;;;2.03;;
11064;SDS011;5585;52.530;7.320;2022-07-23T06:08:59;3.40;;;1.80;;
11064;SDS011;5585;52.530;7.320;2022-07-23T06:11:25;2.95;;;2.35;;
11064;SDS011;5585;52.530;7.320;2022-07-23T06:13:53;1.65;;;1.55;;
11064;SDS011;5585;52.530;7.320;2022-07-23T06:16:19;3.00;;;1.50;;
11064;SDS011;5585;52.530;7.320;2022-07-23T06:18:46;1.70;;;1.33;;
11064;SDS011;5585;52.530;7.320;2022-07-23T06:21:12;1.92;;;1.33;;
11064;SDS011;5585;52.530;7.320;2022-07-23T06:23:39;2.65;;;1.35;;
11064;SDS011;5585;52.530;7.320;2022-07-23T06:26:05;2.15;;;1.60;;
11064;SDS011;5585;52.530;7.320;2022-07-23T06:28:32;1.67;;;1.58;;
11064;SDS011;5585;52.530;7.320;2022-07-23T06:30:59;1.95;;;1.48;;
11064;SDS011;5585;52.530;7.320;2022-07-23T06:33:26;2.03;;;1.60;;
11064;SDS011;5585;52.530;7.320;2022-07-23T06:35:52;1.10;;;1.10;;
11064;SDS011;5585;52.530;7.320;2022-07-23T06:38:19;3.20;;;1.67;;
11064;SDS011;5585;52.530;7.320;2022-07-23T06:40:45;3.05;;;1.92;;
11064;SDS011;5585;52.530;7.320;2022-07-23T06:43:12;2.83;;;2.25;;
11064;SDS011;5585;52.530;7.320;2022-07-23T06:45:38;2.72;;;2.20;;
11064;SDS011;5585;52.530;7.320;2022-07-23T06:48:06;4.55;;;1.63;;
11064;SDS011;5585;52.530;7.320;2022-07-23T06:50:32;2.63;;;1.70;;
11064;SDS011;5585;52.530;7.320;2022-07-23T06:52:59;1.70;;;1.60;;
11064;SDS011;5585;52.530;7.320;2022-07-23T06:55:26;3.30;;;2.15;;
11064;SDS011;5585;52.530;7.320;2022-07-23T06:57:52;3.25;;;1.75;;
11064;SDS011;5585;52.530;7.320;2022-07-23T07:00:19;1.20;;;1.10;;
11064;SDS011;5585;52.530;7.320;2022-07-23T07:02:45;1.85;;;1.10;;
11064;SDS011;5585;52.530;7.320;2022-07-23T07:05:13;2.80;;;1.30;;
11064;SDS011;5585;52.530;7.320;2022-07-23T07:07:39;2.35;;;1.20;;
11064;SDS011;5585;52.530;7.320;2022-07-23T07:10:06;2.88;;;1.02;;
11064;SDS011;5585;52.530;7.320;2022-07-23T07:12:33;0.93;;;0.80;;
11064;SDS011;5585;52.530;7.320;2022-07-23T07:14:59;2.70;;;1.05;;
11064;SDS011;5585;52.530;7.320;2022-07-23T07:17:26;1.38;;;0.90;;
11064;SDS011;5585;52.530;7.320;2022-07-23T07:19:52;2.13;;;1.00;;
11064;SDS011;5585;52.530;7.320;2022-07-23T07:22:20;1.15;;;0.88;;
11064;SDS011;5585;52.530;7.320;2022-07-23T07:24:47;1.73;;;0.88;;
11064;SDS011;5585;52.530;7.320;2022-07-23T07:27:13;2.30;;;1.02;;
11064;SDS011;5585;52.530;7.320;2022-07-23T07:29:39;0.75;;;0.70;;
11064;SDS011;5585;52.530;7.320;2022-07-23T07:32:06;0.75;;;0.60;;
11064;SDS011;5585;52.530;7.320;2022-07-23T07:34:32;2.30;;;0.82;;
11064;SDS011;5585;52.530;7.320;2022-07-23T07:36:59;2.42;;;1.25;;
11064;SDS011;5585;52.530;7.320;2022-07-23T07:39:27;2.17;;;0.90;;
11064;SDS011;5585;52.530;7.320;2022-07-23T07:41:53;1.73;;;0.85;;
11064;SDS011;5585;52.530;7.320;2022-07-23T07:44:20;1.67;;;0.90;;
11064;SDS011;5585;52.530;7.320;2022-07-23T07:46:46;1.10;;;0.70;;
11064;SDS011;5585;52.530;7.320;2022-07-23T07:49:13;2.10;;;0.70;;
11064;SDS011;5585;52.530;7.320;2022-07-23T07:51:39;1.02;;;0.68;;
11064;SDS011;5585;52.530;7.320;2022-07-23T07:54:05;1.15;;;0.70;;
11064;SDS011;5585;52.530;7.320;2022-07-23T07:56:33;0.95;;;0.63;;
11064;SDS011;5585;52.530;7.320;2022-07-23T07:59:00;1.40;;;0.60;;
11064;SDS011;5585;52.530;7.320;2022-07-23T08:01:26;0.70;;;0.60;;
11064;SDS011;5585;52.530;7.320;2022-07-23T08:03:53;0.75;;;0.60;;
11064;SDS011;5585;52.530;7.320;2022-07-23T08:06:19;3.78;;;0.68;;
11064;SDS011;5585;52.530;7.320;2022-07-23T08:08:46;1.10;;;0.85;;
11064;SDS011;5585;52.530;7.320;2022-07-23T08:11:12;1.98;;;0.80;;
11064;SDS011;5585;52.530;7.320;2022-07-23T08:13:40;2.85;;;0.80;;
11064;SDS011;5585;52.530;7.320;2022-07-23T08:16:09;0.90;;;0.60;;
11064;SDS011;5585;52.530;7.320;2022-07-23T08:18:35;1.25;;;0.70;;
11064;SDS011;5585;52.530;7.320;2022-07-23T08:21:02;1.27;;;1.10;;
11064;SDS011;5585;52.530;7.320;2022-07-23T08:23:29;3.58;;;1.08;;
11064;SDS011;5585;52.530;7.320;2022-07-23T08:25:55;1.60;;;0.70;;
11064;SDS011;5585;52.530;7.320;2022-07-23T08:28:24;1.52;;;0.70;;
11064;SDS011;5585;52.530;7.320;2022-07-23T08:30:52;1.70;;;0.70;;
11064;SDS011;5585;52.530;7.320;2022-07-23T08:33:18;1.30;;;0.70;;
11064;SDS011;5585;52.530;7.320;2022-07-23T08:35:45;2.50;;;1.00;;
11064;SDS011;5585;52.530;7.320;2022-07-23T08:38:13;1.63;;;0.70;;
11064;SDS011;5585;52.530;7.320;2022-07-23T08:40:40;1.15;;;0.60;;
11064;SDS011;5585;52.530;7.320;2022-07-23T08:43:07;1.15;;;0.57;;
11064;SDS011;5585;52.530;7.320;2022-07-23T08:45:35;1.13;;;0.47;;
11064;SDS011;5585;52.530;7.320;2022-07-23T08:48:04;0.93;;;0.80;;
11064;SDS011;5585;52.530;7.320;2022-07-23T08:50:31;1.20;;;0.50;;
11064;SDS011;5585;52.530;7.320;2022-07-23T08:52:58;2.35;;;0.80;;
11064;SDS011;5585;52.530;7.320;2022-07-23T08:55:25;1.02;;;0.70;;
11064;SDS011;5585;52.530;7.320;2022-07-23T08:57:52;0.98;;;0.65;;
11064;SDS011;5585;52.530;7.320;2022-07-23T09:00:19;1.20;;;0.60;;
11064;SDS011;5585;52.530;7.320;2022-07-23T09:02:46;2.50;;;0.80;;
11064;SDS011;5585;52.530;7.320;2022-07-23T09:05:14;1.02;;;0.60;;
11064;SDS011;5585;52.530;7.320;2022-07-23T09:10:22;0.50;;;0.40;;
11064;SDS011;5585;52.530;7.320;2022-07-23T09:12:49;0.80;;;0.50;;
11064;SDS011;5585;52.530;7.320;2022-07-23T09:15:15;1.35;;;0.85;;
11064;SDS011;5585;52.530;7.320;2022-07-23T09:17:44;1.40;;;0.50;;
11064;SDS011;5585;52.530;7.320;2022-07-23T09:20:11;1.63;;;0.80;;
11064;SDS011;5585;52.530;7.320;2022-07-23T09:22:39;0.60;;;0.40;;
11064;SDS011;5585;52.530;7.320;2022-07-23T09:25:10;1.00;;;0.40;;
11064;SDS011;5585;52.530;7.320;2022-07-23T09:27:51;0.60;;;0.60;;
11064;SDS011;5585;52.530;7.320;2022-07-23T09:30:18;0.35;;;0.35;;
11064;SDS011;5585;52.530;7.320;2022-07-23T09:35:32;1.67;;;0.70;;
11064;SDS011;5585;52.530;7.320;2022-07-23T09:38:10;0.60;;;0.50;;
11064;SDS011;5585;52.530;7.320;2022-07-23T09:40:37;0.90;;;0.60;;
11064;SDS011;5585;52.530;7.320;2022-07-23T09:43:03;1.30;;;0.50;;
11064;SDS011;5585;52.530;7.320;2022-07-23T09:45:29;0.90;;;0.60;;
11064;SDS011;5585;52.530;7.320;2022-07-23T09:48:09;1.13;;;0.50;;
11064;SDS011;5585;52.530;7.320;2022-07-23T09:50:36;1.55;;;0.90;;
11064;SDS011;5585;52.530;7.320;2022-07-23T09:53:02;1.48;;;0.90;;
11064;SDS011;5585;52.530;7.320;2022-07-23T09:55:32;0.80;;;0.50;;
11064;SDS011;5585;52.530;7.320;2022-07-23T09:58:01;1.00;;;0.45;;
11064;SDS011;5585;52.530;7.320;2022-07-23T10:00:28;1.48;;;0.73;;
11064;SDS011;5585;52.530;7.320;2022-07-23T10:02:55;2.97;;;0.70;;
11064;SDS011;5585;52.530;7.320;2022-07-23T10:05:23;0.63;;;0.50;;
11064;SDS011;5585;52.530;7.320;2022-07-23T10:07:50;0.52;;;0.50;;
11064;SDS011;5585;52.530;7.320;2022-07-23T10:10:17;0.68;;;0.60;;
11064;SDS011;5585;52.530;7.320;2022-07-23T10:12:45;0.60;;;0.60;;
11064;SDS011;5585;52.530;7.320;2022-07-23T10:15:41;0.70;;;0.60;;
11064;SDS011;5585;52.530;7.320;2022-07-23T10:18:09;2.13;;;0.70;;
11064;SDS011;5585;52.530;7.320;2022-07-23T10:20:36;0.75;;;0.52;;
11064;SDS011;5585;52.530;7.320;2022-07-23T10:23:04;0.65;;;0.57;;
11064;SDS011;5585;52.530;7.320;2022-07-23T10:25:35;1.23;;;0.73;;
11064;SDS011;5585;52.530;7.320;2022-07-23T10:28:09;0.70;;;0.40;;
11064;SDS011;5585;52.530;7.320;2022-07-23T10:30:40;0.68;;;0.50;;
11064;SDS011;5585;52.530;7.320;2022-07-23T10:35:53;0.70;;;0.50;;
11064;SDS011;5585;52.530;7.320;2022-07-23T10:38:24;1.15;;;0.60;;
11064;SDS011;5585;52.530;7.320;2022-07-23T10:40:55;1.02;;;0.60;;
11064;SDS011;5585;52.530;7.320;2022-07-23T10:43:23;0.93;;;0.60;;
11064;SDS011;5585;52.530;7.320;2022-07-23T10:45:50;0.57;;;0.45;;
11064;SDS011;5585;52.530;7.320;2022-07-23T10:48:17;0.43;;;0.43;;
11064;SDS011;5585;52.530;7.320;2022-07-23T10:56:13;1.13;;;0.95;;
11064;SDS011;5585;52.530;7.320;2022-07-23T10:58:47;1.10;;;1.00;;
11064;SDS011;5585;52.530;7.320;2022-07-23T11:01:33;2.33;;;0.98;;
11064;SDS011;5585;52.530;7.320;2022-07-23T11:04:00;1.85;;;0.90;;
11064;SDS011;5585;52.530;7.320;2022-07-23T11:09:24;1.23;;;0.60;;
11064;SDS011;5585;52.530;7.320;2022-07-23T11:17:20;1.27;;;0.60;;
11064;SDS011;5585;52.530;7.320;2022-07-23T11:22:33;1.55;;;0.70;;
11064;SDS011;5585;52.530;7.320;2022-07-23T11:25:00;1.35;;;0.45;;
11064;SDS011;5585;52.530;7.320;2022-07-23T11:27:36;1.27;;;0.65;;
11064;SDS011;5585;52.530;7.320;2022-07-23T11:30:02;1.48;;;0.80;;
11064;SDS011;5585;52.530;7.320;2022-07-23T11:32:37;0.98;;;0.55;;
11064;SDS011;5585;52.530;7.320;2022-07-23T11:35:21;1.50;;;0.80;;
11064;SDS011;5585;52.530;7.320;2022-07-23T11:37:47;1.40;;;0.70;;
11064;SDS011;5585;52.530;7.320;2022-07-23T11:40:14;0.68;;;0.60;;
11064;SDS011;5585;52.530;7.320;2022-07-23T11:42:50;1.00;;;0.70;;
11064;SDS011;5585;52.530;7.320;2022-07-23T11:45:17;0.50;;;0.50;;
11064;SDS011;5585;52.530;7.320;2022-07-23T11:47:45;0.68;;;0.45;;
11064;SDS011;5585;52.530;7.320;2022-07-23T11:50:11;0.80;;;0.60;;
11064;SDS011;5585;52.530;7.320;2022-07-23T11:52:38;0.47;;;0.43;;
11064;SDS011;5585;52.530;7.320;2022-07-23T11:55:05;0.95;;;0.77;;
11064;SDS011;5585;52.530;7.320;2022-07-23T11:57:32;1.67;;;0.75;;
11064;SDS011;5585;52.530;7.320;2022-07-23T12:00:01;1.38;;;0.55;;
11064;SDS011;5585;52.530;7.320;2022-07-23T12:02:28;0.90;;;0.60;;
11064;SDS011;5585;52.530;7.320;2022-07-23T12:04:56;2.30;;;0.90;;
11064;SDS011;5585;52.530;7.320;2022-07-23T12:07:27;1.73;;;0.85;;
11064;SDS011;5585;52.530;7.320;2022-07-23T12:09:54;1.38;;;0.68;;
11064;SDS011;5585;52.530;7.320;2022-07-23T12:12:20;2.35;;;0.95;;
11064;SDS011;5585;52.530;7.320;2022-07-23T12:14:48;1.23;;;1.10;;
11064;SDS011;5585;52.530;7.320;2022-07-23T12:17:15;0.95;;;0.70;;
11064;SDS011;5585;52.530;7.320;2022-07-23T12:19:41;1.23;;;0.70;;
11064;SDS011;5585;52.530;7.320;2022-07-23T12:22:09;1.58;;;0.70;;
11064;SDS011;5585;52.530;7.320;2022-07-23T12:27:19;0.68;;;0.68;;
11064;SDS011;5585;52.530;7.320;2022-07-23T12:29:46;1.45;;;0.80;;
11064;SDS011;5585;52.530;7.320;2022-07-23T12:32:19;1.67;;;1.20;;
11064;SDS011;5585;52.530;7.320;2022-07-23T12:34:47;1.08;;;0.80;;
11064;SDS011;5585;52.530;7.320;2022-07-23T12:37:28;1.65;;;0.82;;
11064;SDS011;5585;52.530;7.320;2022-07-23T12:39:55;0.75;;;0.52;;
11064;SDS011;5585;52.530;7.320;2022-07-23T12:42:21;2.45;;;1.00;;
11064;SDS011;5585;52.530;7.320;2022-07-23T12:45:07;1.52;;;0.80;;
11064;SDS011;5585;52.530;7.320;2022-07-23T12:47:50;1.55;;;0.70;;
11064;SDS011;5585;52.530;7.320;2022-07-23T12:50:30;0.88;;;0.73;;
11064;SDS011;5585;52.530;7.320;2022-07-23T12:53:02;1.60;;;1.23;;
11064;SDS011;5585;52.530;7.320;2022-07-23T12:55:29;1.60;;;0.68;;
11064;SDS011;5585;52.530;7.320;2022-07-23T12:58:02;1.50;;;0.80;;
11064;SDS011;5585;52.530;7.320;2022-07-23T13:00:29;1.02;;;0.90;;
11064;SDS011;5585;52.530;7.320;2022-07-23T13:02:56;0.85;;;0.85;;
11064;SDS011;5585;52.530;7.320;2022-07-23T13:05:22;0.70;;;0.70;;
11064;SDS011;5585;52.530;7.320;2022-07-23T13:07:49;1.17;;;0.80;;
11064;SDS011;5585;52.530;7.320;2022-07-23T13:10:16;3.40;;;1.30;;
11064;SDS011;5585;52.530;7.320;2022-07-23T13:12:43;1.50;;;0.90;;
11064;SDS011;5585;52.530;7.320;2022-07-23T13:15:10;2.17;;;1.15;;
11064;SDS011;5585;52.530;7.320;2022-07-23T13:17:36;0.80;;;0.70;;
11064;SDS011;5585;52.530;7.320;2022-07-23T13:20:03;1.05;;;0.80;;
11064;SDS011;5585;52.530;7.320;2022-07-23T13:22:29;0.93;;;0.80;;
11064;SDS011;5585;52.530;7.320;2022-07-23T13:24:56;2.40;;;0.80;;
11064;SDS011;5585;52.530;7.320;2022-07-23T13:27:24;0.88;;;0.80;;
11064;SDS011;5585;52.530;7.320;2022-07-23T13:29:50;1.38;;;0.85;;
11064;SDS011;5585;52.530;7.320;2022-07-23T13:32:17;1.10;;;1.00;;
11064;SDS011;5585;52.530;7.320;2022-07-23T13:34:43;1.33;;;1.23;;
11064;SDS011;5585;52.530;7.320;2022-07-23T13:37:09;1.33;;;0.90;;
11064;SDS011;5585;52.530;7.320;2022-07-23T13:39:38;0.73;;;0.73;;
11064;SDS011;5585;52.530;7.320;2022-07-23T13:42:04;2.75;;;1.00;;
11064;SDS011;5585;52.530;7.320;2022-07-23T13:44:33;1.13;;;1.02;;
11064;SDS011;5585;52.530;7.320;2022-07-23T13:46:59;1.08;;;0.90;;
11064;SDS011;5585;52.530;7.320;2022-07-23T13:49:26;1.23;;;0.80;;
11064;SDS011;5585;52.530;7.320;2022-07-23T13:51:52;1.45;;;0.80;;
11064;SDS011;5585;52.530;7.320;2022-07-23T13:54:18;1.40;;;1.00;;
11064;SDS011;5585;52.530;7.320;2022-07-23T13:56:45;1.10;;;1.00;;
11064;SDS011;5585;52.530;7.320;2022-07-23T13:59:11;1.05;;;0.90;;
11064;SDS011;5585;52.530;7.320;2022-07-23T14:01:39;1.25;;;0.93;;
11064;SDS011;5585;52.530;7.320;2022-07-23T14:04:06;1.00;;;0.88;;
11064;SDS011;5585;52.530;7.320;2022-07-23T14:06:32;1.63;;;1.20;;
11064;SDS011;5585;52.530;7.320;2022-07-23T14:08:58;1.63;;;0.85;;
11064;SDS011;5585;52.530;7.320;2022-07-23T14:11:25;1.00;;;0.90;;
11064;SDS011;5585;52.530;7.320;2022-07-23T14:13:53;0.70;;;0.70;;
11064;SDS011;5585;52.530;7.320;2022-07-23T14:16:19;1.08;;;0.80;;
11064;SDS011;5585;52.530;7.320;2022-07-23T14:18:47;1.58;;;0.82;;
11064;SDS011;5585;52.530;7.320;2022-07-23T14:21:13;1.77;;;0.95;;
11064;SDS011;5585;52.530;7.320;2022-07-23T14:23:40;0.90;;;0.90;;
11064;SDS011;5585;52.530;7.320;2022-07-23T14:26:07;1.17;;;0.80;;
11064;SDS011;5585;52.530;7.320;2022-07-23T14:28:34;1.80;;;0.80;;
11064;SDS011;5585;52.530;7.320;2022-07-23T14:31:00;1.60;;;0.90;;
11064;SDS011;5585;52.530;7.320;2022-07-23T14:33:26;1.10;;;0.90;;
11064;SDS011;5585;52.530;7.320;2022-07-23T14:35:54;1.48;;;0.80;;
11064;SDS011;5585;52.530;7.320;2022-07-23T14:38:21;1.10;;;1.00;;
11064;SDS011;5585;52.530;7.320;2022-07-23T14:40:47;0.95;;;0.80;;
11064;SDS011;5585;52.530;7.320;2022-07-23T14:43:14;1.55;;;0.95;;
11064;SDS011;5585;52.530;7.320;2022-07-23T14:45:40;1.15;;;1.02;;
11064;SDS011;5585;52.530;7.320;2022-07-23T14:48:07;1.42;;;0.90;;
11064;SDS011;5585;52.530;7.320;2022-07-23T14:50:33;1.40;;;0.80;;
11064;SDS011;5585;52.530;7.320;2022-07-23T14:53:01;0.85;;;0.80;;
11064;SDS011;5585;52.530;7.320;2022-07-23T14:55:28;2.53;;;1.85;;
11064;SDS011;5585;52.530;7.320;2022-07-23T14:57:56;1.73;;;1.38;;
11064;SDS011;5585;52.530;7.320;2022-07-23T15:00:22;1.30;;;1.20;;
11064;SDS011;5585;52.530;7.320;2022-07-23T15:02:49;1.10;;;1.00;;
11064;SDS011;5585;52.530;7.320;2022-07-23T15:05:15;1.95;;;1.20;;
11064;SDS011;5585;52.530;7.320;2022-07-23T15:07:42;1.83;;;1.00;;
11064;SDS011;5585;52.530;7.320;2022-07-23T15:10:10;1.20;;;1.10;;
11064;SDS011;5585;52.530;7.320;2022-07-23T15:12:36;1.38;;;0.98;;
11064;SDS011;5585;52.530;7.320;2022-07-23T15:15:03;1.10;;;1.00;;
11064;SDS011;5585;52.530;7.320;2022-07-23T15:17:30;1.30;;;1.20;;
11064;SDS011;5585;52.530;7.320;2022-07-23T15:19:56;1.75;;;1.40;;
11064;SDS011;5585;52.530;7.320;2022-07-23T15:22:22;1.67;;;1.33;;
11064;SDS011;5585;52.530;7.320;2022-07-23T15:24:49;1.58;;;1.10;;
11064;SDS011;5585;52.530;7.320;2022-07-23T15:27:17;1.67;;;1.30;;
11064;SDS011;5585;52.530;7.320;2022-07-23T15:29:43;1.17;;;1.00;;